RYR6GW EPWR-LGSA
Flight info
| Callsign | RYR6GW |
|---|---|
| Flight time | 2h 30m |
| Altitude | 39000 |
| Route | PEKOT L616 DESEN DCT VALPI DCT PARAK DCT NISVA DCT NIKTI DCT KOROS DCT NEVRA DCT KEA UL617 MIL UY144 RESTI Y144 RUSOS |
| Aircraft | B38M/M-SDE1FGHILORVWXY/HB1 |
Departure
| Time | 2026-04-27 15:12 |
|---|---|
| Airport | Copernicus Wrocław Airport (EPWR) |
Arrival
| Time | 2026-04-27 17:42 |
|---|---|
| Airport | Chania International Airport (LGSA) |
| Time | Latitude | Longitude | Altitude | Speed | Heading |
|---|---|---|---|---|---|
| 2026-04-27 14:49 | 51.10898 | 16.87882 | 402 ft | 0 kts | 25° |
| 2026-04-27 14:55 | 51.10898 | 16.87881 | 406 ft | 0 kts | 25° |
| 2026-04-27 15:00 | 51.10897 | 16.87881 | 406 ft | 0 kts | 25° |
| 2026-04-27 15:03 | 51.10879 | 16.87867 | 405 ft | 4 kts | 26° |
| 2026-04-27 15:03 | 51.10857 | 16.87850 | 402 ft | 4 kts | 36° |
| 2026-04-27 15:04 | 51.10845 | 16.87821 | 399 ft | 4 kts | 96° |
| 2026-04-27 15:04 | 51.10852 | 16.87786 | 402 ft | 1 kts | 116° |
| 2026-04-27 15:04 | 51.10854 | 16.87780 | 403 ft | 0 kts | 116° |
| 2026-04-27 15:07 | 51.10839 | 16.87829 | 406 ft | 10 kts | 116° |
| 2026-04-27 15:08 | 51.10801 | 16.87954 | 405 ft | 14 kts | 116° |
| 2026-04-27 15:08 | 51.10754 | 16.88105 | 406 ft | 17 kts | 116° |
| 2026-04-27 15:08 | 51.10700 | 16.88283 | 405 ft | 19 kts | 116° |
| 2026-04-27 15:08 | 51.10638 | 16.88482 | 406 ft | 21 kts | 118° |
| 2026-04-27 15:09 | 51.10569 | 16.88705 | 406 ft | 24 kts | 116° |
| 2026-04-27 15:09 | 51.10494 | 16.88949 | 406 ft | 26 kts | 116° |
| 2026-04-27 15:09 | 51.10414 | 16.89215 | 403 ft | 28 kts | 116° |
| 2026-04-27 15:09 | 51.10334 | 16.89475 | 406 ft | 21 kts | 116° |
| 2026-04-27 15:10 | 51.10268 | 16.89687 | 406 ft | 22 kts | 116° |
| 2026-04-27 15:10 | 51.10204 | 16.89897 | 402 ft | 13 kts | 115° |
| 2026-04-27 15:10 | 51.10149 | 16.89966 | 406 ft | 11 kts | 193° |
| 2026-04-27 15:10 | 51.10040 | 16.89890 | 406 ft | 20 kts | 206° |
| 2026-04-27 15:11 | 51.09949 | 16.89817 | 403 ft | 12 kts | 206° |
| 2026-04-27 15:11 | 51.09918 | 16.89720 | 406 ft | 10 kts | 292° |
| 2026-04-27 15:11 | 51.09948 | 16.89622 | 406 ft | 0 kts | 295° |
| 2026-04-27 15:11 | 51.09949 | 16.89620 | 406 ft | 3 kts | 295° |
| 2026-04-27 15:12 | 51.10075 | 16.89211 | 407 ft | 83 kts | 296° |
| 2026-04-27 15:12 | 51.10440 | 16.88017 | 410 ft | 152 kts | 296° |
| 2026-04-27 15:12 | 51.10921 | 16.86385 | 1039 ft | 169 kts | 294° |
| 2026-04-27 15:12 | 51.11280 | 16.84610 | 2094 ft | 170 kts | 289° |
| 2026-04-27 15:13 | 51.11724 | 16.82692 | 2582 ft | 203 kts | 295° |
| 2026-04-27 15:13 | 51.12432 | 16.80520 | 3053 ft | 237 kts | 299° |
| 2026-04-27 15:13 | 51.13224 | 16.78120 | 3914 ft | 253 kts | 298° |
| 2026-04-27 15:13 | 51.14037 | 16.75606 | 5058 ft | 256 kts | 298° |
| 2026-04-27 15:14 | 51.14848 | 16.73064 | 6218 ft | 259 kts | 297° |
| 2026-04-27 15:14 | 51.15658 | 16.70502 | 7309 ft | 261 kts | 297° |
| 2026-04-27 15:14 | 51.16463 | 16.67935 | 8366 ft | 263 kts | 298° |
| 2026-04-27 15:14 | 51.17282 | 16.65316 | 9434 ft | 266 kts | 298° |
| 2026-04-27 15:15 | 51.18110 | 16.62663 | 10441 ft | 269 kts | 298° |
| 2026-04-27 15:15 | 51.19183 | 16.60239 | 11373 ft | 269 kts | 319° |
| 2026-04-27 15:15 | 51.20817 | 16.58797 | 12301 ft | 274 kts | 343° |
| 2026-04-27 15:15 | 51.22737 | 16.58608 | 13229 ft | 283 kts | 6° |
| 2026-04-27 15:16 | 51.24616 | 16.59674 | 14129 ft | 294 kts | 24° |
| 2026-04-27 15:16 | 51.26433 | 16.61231 | 14922 ft | 299 kts | 23° |
| 2026-04-27 15:16 | 51.28283 | 16.62817 | 15765 ft | 302 kts | 23° |
| 2026-04-27 15:16 | 51.30144 | 16.64430 | 16589 ft | 306 kts | 23° |
| 2026-04-27 15:17 | 51.32025 | 16.66074 | 17403 ft | 311 kts | 24° |
| 2026-04-27 15:17 | 51.33799 | 16.68245 | 17859 ft | 337 kts | 44° |
| 2026-04-27 15:17 | 51.35013 | 16.71588 | 18330 ft | 361 kts | 68° |
| 2026-04-27 15:17 | 51.35325 | 16.75601 | 18904 ft | 378 kts | 92° |
| 2026-04-27 15:18 | 51.34603 | 16.79669 | 19595 ft | 387 kts | 115° |
| 2026-04-27 15:18 | 51.33309 | 16.83479 | 20191 ft | 392 kts | 115° |
| 2026-04-27 15:18 | 51.32089 | 16.87400 | 20822 ft | 396 kts | 115° |
| 2026-04-27 15:18 | 51.30868 | 16.91363 | 21440 ft | 399 kts | 114° |
| 2026-04-27 15:19 | 51.29636 | 16.95380 | 22051 ft | 404 kts | 114° |
| 2026-04-27 15:19 | 51.28396 | 16.99428 | 22643 ft | 408 kts | 114° |
| 2026-04-27 15:19 | 51.27028 | 17.03435 | 23224 ft | 413 kts | 125° |
| 2026-04-27 15:19 | 51.25038 | 17.06730 | 23812 ft | 415 kts | 144° |
| 2026-04-27 15:20 | 51.22509 | 17.08957 | 24234 ft | 416 kts | 163° |
| 2026-04-27 15:20 | 51.19737 | 17.10294 | 24696 ft | 418 kts | 167° |
| 2026-04-27 15:20 | 51.16923 | 17.11567 | 25138 ft | 422 kts | 168° |
| 2026-04-27 15:20 | 51.14081 | 17.12817 | 25630 ft | 425 kts | 168° |
| 2026-04-27 15:21 | 51.11216 | 17.14052 | 26082 ft | 428 kts | 169° |
| 2026-04-27 15:21 | 51.08322 | 17.15285 | 26540 ft | 431 kts | 169° |
| 2026-04-27 15:21 | 51.05413 | 17.16521 | 26990 ft | 435 kts | 169° |
| 2026-04-27 15:21 | 51.02518 | 17.17748 | 27423 ft | 438 kts | 169° |
| 2026-04-27 15:22 | 50.99562 | 17.18999 | 27841 ft | 441 kts | 169° |
| 2026-04-27 15:22 | 50.96598 | 17.20251 | 28325 ft | 443 kts | 169° |
| 2026-04-27 15:22 | 50.93599 | 17.21516 | 28731 ft | 447 kts | 169° |
| 2026-04-27 15:22 | 50.90575 | 17.22791 | 29048 ft | 452 kts | 169° |
| 2026-04-27 15:23 | 50.87530 | 17.24072 | 29504 ft | 454 kts | 169° |
| 2026-04-27 15:23 | 50.84458 | 17.25363 | 29888 ft | 458 kts | 170° |
| 2026-04-27 15:23 | 50.81363 | 17.26662 | 30279 ft | 461 kts | 170° |
| 2026-04-27 15:23 | 50.78252 | 17.27967 | 30604 ft | 464 kts | 170° |
| 2026-04-27 15:24 | 50.75129 | 17.29273 | 30911 ft | 466 kts | 169° |
| 2026-04-27 15:24 | 50.71986 | 17.30587 | 31284 ft | 468 kts | 170° |
| 2026-04-27 15:24 | 50.68827 | 17.31906 | 31613 ft | 470 kts | 170° |
| 2026-04-27 15:24 | 50.65656 | 17.33227 | 31931 ft | 473 kts | 170° |
| 2026-04-27 15:25 | 50.62462 | 17.34556 | 32256 ft | 475 kts | 170° |
| 2026-04-27 15:25 | 50.59251 | 17.35891 | 32569 ft | 478 kts | 170° |
| 2026-04-27 15:25 | 50.56021 | 17.37232 | 32878 ft | 480 kts | 170° |
| 2026-04-27 15:25 | 50.52782 | 17.38574 | 33179 ft | 483 kts | 170° |
| 2026-04-27 15:26 | 50.49562 | 17.39907 | 33444 ft | 485 kts | 169° |
| 2026-04-27 15:26 | 50.46289 | 17.41260 | 33803 ft | 487 kts | 169° |
| 2026-04-27 15:26 | 50.42998 | 17.42618 | 34084 ft | 490 kts | 169° |
| 2026-04-27 15:26 | 50.39696 | 17.43990 | 34343 ft | 493 kts | 168° |
| 2026-04-27 15:27 | 50.36453 | 17.45840 | 34624 ft | 497 kts | 162° |
| 2026-04-27 15:27 | 50.34315 | 17.47163 | 34836 ft | 498 kts | 162° |
| 2026-04-27 15:27 | 50.31092 | 17.49157 | 35112 ft | 499 kts | 162° |
| 2026-04-27 15:27 | 50.27853 | 17.51156 | 35491 ft | 497 kts | 163° |
| 2026-04-27 15:28 | 50.24561 | 17.52571 | 35904 ft | 489 kts | 172° |
| 2026-04-27 15:28 | 50.21237 | 17.53742 | 36247 ft | 489 kts | 171° |
| 2026-04-27 15:28 | 50.17915 | 17.54932 | 36585 ft | 488 kts | 171° |
| 2026-04-27 15:28 | 50.14615 | 17.56107 | 36952 ft | 487 kts | 171° |
| 2026-04-27 15:29 | 50.11309 | 17.57281 | 37278 ft | 486 kts | 171° |
| 2026-04-27 15:29 | 50.08021 | 17.58447 | 37632 ft | 484 kts | 171° |
| 2026-04-27 15:29 | 50.04744 | 17.59607 | 37977 ft | 483 kts | 171° |
| 2026-04-27 15:29 | 50.01462 | 17.60768 | 38327 ft | 481 kts | 171° |
| 2026-04-27 15:30 | 49.98207 | 17.61917 | 38608 ft | 480 kts | 171° |
| 2026-04-27 15:30 | 49.94983 | 17.63054 | 38902 ft | 479 kts | 171° |
| 2026-04-27 15:30 | 49.91737 | 17.64196 | 39123 ft | 478 kts | 170° |
| 2026-04-27 15:30 | 49.88483 | 17.65340 | 39223 ft | 479 kts | 170° |
| 2026-04-27 15:31 | 49.81999 | 17.67615 | 39198 ft | 476 kts | 170° |
| 2026-04-27 15:31 | 49.75536 | 17.69876 | 39200 ft | 477 kts | 170° |
| 2026-04-27 15:32 | 49.69067 | 17.72134 | 39198 ft | 477 kts | 171° |
| 2026-04-27 15:32 | 49.62576 | 17.74393 | 39191 ft | 477 kts | 171° |
| 2026-04-27 15:33 | 49.56147 | 17.76624 | 39190 ft | 477 kts | 171° |
| 2026-04-27 15:33 | 49.49671 | 17.78866 | 39172 ft | 477 kts | 171° |
| 2026-04-27 15:34 | 49.43205 | 17.81097 | 39187 ft | 477 kts | 171° |
| 2026-04-27 15:34 | 49.36727 | 17.83327 | 39189 ft | 477 kts | 171° |
| 2026-04-27 15:35 | 49.30247 | 17.85553 | 39190 ft | 477 kts | 171° |
| 2026-04-27 15:35 | 49.23777 | 17.87768 | 39163 ft | 477 kts | 171° |
| 2026-04-27 15:36 | 49.17308 | 17.89977 | 39182 ft | 476 kts | 171° |
| 2026-04-27 15:36 | 49.10841 | 17.92180 | 39193 ft | 476 kts | 171° |
| 2026-04-27 15:37 | 49.04379 | 17.94380 | 39190 ft | 476 kts | 169° |
| 2026-04-27 15:37 | 49.01246 | 17.96065 | 39164 ft | 479 kts | 154° |
| 2026-04-27 15:37 | 48.98302 | 17.98447 | 39185 ft | 480 kts | 155° |
| 2026-04-27 15:38 | 48.92338 | 18.03092 | 39175 ft | 482 kts | 154° |
| 2026-04-27 15:38 | 48.86385 | 18.07801 | 39179 ft | 482 kts | 154° |
| 2026-04-27 15:39 | 48.80469 | 18.12478 | 39163 ft | 482 kts | 154° |
| 2026-04-27 15:39 | 48.74507 | 18.17179 | 39161 ft | 482 kts | 154° |
| 2026-04-27 15:40 | 48.68557 | 18.21859 | 39171 ft | 481 kts | 154° |
| 2026-04-27 15:40 | 48.62618 | 18.26517 | 39170 ft | 481 kts | 154° |
| 2026-04-27 15:41 | 48.56669 | 18.31170 | 39175 ft | 481 kts | 154° |
| 2026-04-27 15:41 | 48.50719 | 18.35812 | 39176 ft | 481 kts | 154° |
| 2026-04-27 15:42 | 48.44779 | 18.40434 | 39178 ft | 480 kts | 154° |
| 2026-04-27 15:42 | 48.38840 | 18.45043 | 39175 ft | 480 kts | 155° |
| 2026-04-27 15:43 | 48.32936 | 18.49612 | 39180 ft | 481 kts | 155° |
| 2026-04-27 15:43 | 48.26990 | 18.54203 | 39171 ft | 481 kts | 155° |
| 2026-04-27 15:44 | 48.21038 | 18.58786 | 39166 ft | 480 kts | 155° |
| 2026-04-27 15:44 | 48.15098 | 18.63346 | 39171 ft | 479 kts | 155° |
| 2026-04-27 15:45 | 48.09163 | 18.67892 | 39177 ft | 479 kts | 155° |
| 2026-04-27 15:45 | 48.03227 | 18.72426 | 39172 ft | 479 kts | 155° |
| 2026-04-27 15:46 | 47.97295 | 18.76946 | 39162 ft | 478 kts | 155° |
| 2026-04-27 15:46 | 47.91385 | 18.81437 | 39168 ft | 477 kts | 155° |
| 2026-04-27 15:47 | 47.85496 | 18.85901 | 39169 ft | 476 kts | 155° |
| 2026-04-27 15:47 | 47.79594 | 18.90363 | 39181 ft | 477 kts | 155° |
| 2026-04-27 15:48 | 47.73669 | 18.94832 | 39172 ft | 477 kts | 155° |
| 2026-04-27 15:49 | 47.64795 | 19.01501 | 39169 ft | 477 kts | 155° |
| 2026-04-27 15:49 | 47.58882 | 19.05932 | 39178 ft | 477 kts | 155° |
| 2026-04-27 15:50 | 47.52957 | 19.10361 | 39187 ft | 477 kts | 155° |
| 2026-04-27 15:50 | 47.47029 | 19.14779 | 39186 ft | 476 kts | 155° |
| 2026-04-27 15:51 | 47.41109 | 19.19181 | 39186 ft | 476 kts | 155° |
| 2026-04-27 15:51 | 47.35181 | 19.23579 | 39186 ft | 476 kts | 155° |
| 2026-04-27 15:52 | 47.29252 | 19.27965 | 39177 ft | 476 kts | 155° |
| 2026-04-27 15:52 | 47.23363 | 19.32311 | 39176 ft | 476 kts | 155° |
| 2026-04-27 15:53 | 47.17430 | 19.36679 | 39176 ft | 477 kts | 156° |
| 2026-04-27 15:53 | 47.11499 | 19.41034 | 39172 ft | 477 kts | 156° |
| 2026-04-27 15:54 | 47.05553 | 19.45380 | 39167 ft | 477 kts | 156° |
| 2026-04-27 15:54 | 46.99618 | 19.49716 | 39172 ft | 477 kts | 156° |
| 2026-04-27 15:55 | 46.93683 | 19.54042 | 39152 ft | 477 kts | 156° |
| 2026-04-27 15:55 | 46.87734 | 19.58368 | 39170 ft | 477 kts | 156° |
| 2026-04-27 15:56 | 46.81788 | 19.62680 | 39165 ft | 477 kts | 156° |
| 2026-04-27 15:56 | 46.75838 | 19.66983 | 39162 ft | 477 kts | 156° |
| 2026-04-27 15:57 | 46.69888 | 19.71277 | 39158 ft | 477 kts | 156° |
| 2026-04-27 15:57 | 46.63957 | 19.75546 | 39170 ft | 478 kts | 156° |
| 2026-04-27 15:58 | 46.58005 | 19.79819 | 39168 ft | 478 kts | 156° |
| 2026-04-27 15:58 | 46.52034 | 19.84097 | 39163 ft | 478 kts | 156° |
| 2026-04-27 15:59 | 46.46055 | 19.88368 | 39145 ft | 478 kts | 156° |
| 2026-04-27 15:59 | 46.40095 | 19.92617 | 39161 ft | 478 kts | 156° |
| 2026-04-27 16:00 | 46.34126 | 19.96864 | 39154 ft | 477 kts | 156° |
| 2026-04-27 16:00 | 46.28155 | 20.01102 | 39157 ft | 478 kts | 156° |
| 2026-04-27 16:01 | 46.22213 | 20.05308 | 39135 ft | 478 kts | 156° |
| 2026-04-27 16:01 | 46.16277 | 20.09566 | 39141 ft | 476 kts | 152° |
| 2026-04-27 16:02 | 46.10641 | 20.14603 | 39183 ft | 478 kts | 150° |
| 2026-04-27 16:02 | 46.05006 | 20.19682 | 39148 ft | 476 kts | 150° |
| 2026-04-27 16:03 | 45.99412 | 20.24711 | 39152 ft | 476 kts | 150° |
| 2026-04-27 16:03 | 45.93798 | 20.29746 | 39146 ft | 475 kts | 150° |
| 2026-04-27 16:04 | 45.88188 | 20.34767 | 39148 ft | 475 kts | 150° |
| 2026-04-27 16:04 | 45.82571 | 20.39780 | 39146 ft | 475 kts | 150° |
| 2026-04-27 16:05 | 45.76955 | 20.44781 | 39154 ft | 475 kts | 150° |
| 2026-04-27 16:05 | 45.71338 | 20.49771 | 39134 ft | 475 kts | 150° |
| 2026-04-27 16:06 | 45.65725 | 20.54745 | 39145 ft | 474 kts | 150° |
| 2026-04-27 16:06 | 45.60156 | 20.59667 | 39143 ft | 474 kts | 150° |
| 2026-04-27 16:07 | 45.54547 | 20.64615 | 39141 ft | 474 kts | 150° |
| 2026-04-27 16:07 | 45.48933 | 20.69553 | 39142 ft | 473 kts | 150° |
| 2026-04-27 16:08 | 45.43330 | 20.74479 | 39138 ft | 473 kts | 150° |
| 2026-04-27 16:08 | 45.37725 | 20.79382 | 39140 ft | 473 kts | 150° |
| 2026-04-27 16:09 | 45.32115 | 20.84285 | 39141 ft | 473 kts | 150° |
| 2026-04-27 16:09 | 45.23740 | 20.91580 | 39144 ft | 472 kts | 150° |
| 2026-04-27 16:10 | 45.12541 | 21.01295 | 39147 ft | 472 kts | 150° |
| 2026-04-27 16:11 | 45.04136 | 21.08558 | 39148 ft | 472 kts | 150° |
| 2026-04-27 16:12 | 44.95722 | 21.15802 | 39117 ft | 471 kts | 150° |
| 2026-04-27 16:13 | 44.87308 | 21.23022 | 39130 ft | 471 kts | 150° |
| 2026-04-27 16:13 | 44.78934 | 21.30182 | 39131 ft | 471 kts | 150° |
| 2026-04-27 16:14 | 44.68616 | 21.38970 | 39130 ft | 472 kts | 150° |
| 2026-04-27 16:15 | 44.57412 | 21.48473 | 39128 ft | 472 kts | 151° |
| 2026-04-27 16:16 | 44.46173 | 21.57960 | 39126 ft | 471 kts | 151° |
| 2026-04-27 16:17 | 44.34922 | 21.67415 | 39130 ft | 471 kts | 151° |
| 2026-04-27 16:18 | 44.23698 | 21.76805 | 39123 ft | 471 kts | 151° |
| 2026-04-27 16:19 | 44.18087 | 21.81484 | 39135 ft | 470 kts | 152° |
| 2026-04-27 16:20 | 44.06844 | 21.90826 | 39135 ft | 470 kts | 152° |
| 2026-04-27 16:21 | 43.98436 | 21.97790 | 39131 ft | 468 kts | 151° |
| 2026-04-27 16:22 | 43.87268 | 22.06999 | 39133 ft | 468 kts | 151° |
| 2026-04-27 16:22 | 43.78856 | 22.13908 | 39135 ft | 468 kts | 151° |
| 2026-04-27 16:23 | 43.70438 | 22.20800 | 39134 ft | 468 kts | 152° |
| 2026-04-27 16:24 | 43.64832 | 22.25376 | 39137 ft | 468 kts | 152° |
| 2026-04-27 16:25 | 43.53600 | 22.34515 | 39118 ft | 468 kts | 152° |
| 2026-04-27 16:26 | 43.42393 | 22.43595 | 39124 ft | 468 kts | 152° |
| 2026-04-27 16:27 | 43.31160 | 22.52656 | 39123 ft | 468 kts | 152° |
| 2026-04-27 16:28 | 43.17073 | 22.63963 | 39124 ft | 469 kts | 153° |
| 2026-04-27 16:29 | 43.02996 | 22.75206 | 39123 ft | 470 kts | 153° |
| 2026-04-27 16:30 | 42.92006 | 22.84972 | 39144 ft | 474 kts | 147° |
| 2026-04-27 16:31 | 42.78544 | 22.97781 | 39112 ft | 470 kts | 148° |
| 2026-04-27 16:32 | 42.70523 | 23.05352 | 39122 ft | 470 kts | 148° |
| 2026-04-27 16:33 | 42.62465 | 23.12937 | 39123 ft | 469 kts | 148° |
| 2026-04-27 16:33 | 42.57106 | 23.17969 | 39118 ft | 468 kts | 148° |
| 2026-04-27 16:34 | 42.51741 | 23.22995 | 39123 ft | 468 kts | 148° |
| 2026-04-27 16:34 | 42.46404 | 23.27982 | 39129 ft | 468 kts | 148° |
| 2026-04-27 16:35 | 42.41023 | 23.33002 | 39128 ft | 468 kts | 148° |
| 2026-04-27 16:36 | 42.32975 | 23.40489 | 39141 ft | 468 kts | 148° |
| 2026-04-27 16:36 | 42.27638 | 23.45441 | 39136 ft | 469 kts | 149° |
| 2026-04-27 16:37 | 42.22254 | 23.50426 | 39148 ft | 469 kts | 149° |
| 2026-04-27 16:37 | 42.16870 | 23.55401 | 39133 ft | 469 kts | 149° |
| 2026-04-27 16:38 | 42.11481 | 23.60369 | 39118 ft | 469 kts | 149° |
| 2026-04-27 16:38 | 42.06081 | 23.65337 | 39154 ft | 471 kts | 149° |
| 2026-04-27 16:39 | 42.00667 | 23.70309 | 39149 ft | 470 kts | 149° |
| 2026-04-27 16:39 | 41.95258 | 23.75265 | 39148 ft | 470 kts | 149° |
| 2026-04-27 16:40 | 41.89855 | 23.80205 | 39139 ft | 470 kts | 149° |
| 2026-04-27 16:40 | 41.84448 | 23.85140 | 39134 ft | 470 kts | 149° |
| 2026-04-27 16:41 | 41.79041 | 23.90062 | 39146 ft | 469 kts | 149° |
| 2026-04-27 16:41 | 41.73633 | 23.94977 | 39146 ft | 469 kts | 149° |
| 2026-04-27 16:42 | 41.68230 | 23.99876 | 39141 ft | 469 kts | 149° |
| 2026-04-27 16:42 | 41.65438 | 24.02099 | 39142 ft | 464 kts | 160° |
| 2026-04-27 16:42 | 41.62389 | 24.03319 | 39130 ft | 452 kts | 179° |
| 2026-04-27 16:43 | 41.56200 | 24.03118 | 39125 ft | 454 kts | 180° |
| 2026-04-27 16:43 | 41.49866 | 24.04010 | 39139 ft | 458 kts | 179° |
| 2026-04-27 16:44 | 41.43538 | 24.04744 | 39144 ft | 456 kts | 179° |
| 2026-04-27 16:44 | 41.37201 | 24.05433 | 39145 ft | 457 kts | 180° |
| 2026-04-27 16:45 | 41.30863 | 24.06114 | 39154 ft | 456 kts | 180° |
| 2026-04-27 16:45 | 41.24532 | 24.06793 | 39148 ft | 456 kts | 180° |
| 2026-04-27 16:46 | 41.18212 | 24.07468 | 39137 ft | 454 kts | 180° |
| 2026-04-27 16:46 | 41.11910 | 24.08142 | 39170 ft | 454 kts | 180° |
| 2026-04-27 16:47 | 41.05606 | 24.08814 | 39166 ft | 454 kts | 180° |
| 2026-04-27 16:47 | 40.99345 | 24.09480 | 39161 ft | 454 kts | 180° |
| 2026-04-27 16:48 | 40.93039 | 24.10150 | 39155 ft | 454 kts | 180° |
| 2026-04-27 16:48 | 40.86739 | 24.10818 | 39180 ft | 455 kts | 180° |
| 2026-04-27 16:49 | 40.77300 | 24.11815 | 39163 ft | 454 kts | 180° |
| 2026-04-27 16:49 | 40.71009 | 24.12479 | 39162 ft | 453 kts | 180° |
| 2026-04-27 16:50 | 40.64710 | 24.13142 | 39165 ft | 454 kts | 180° |
| 2026-04-27 16:50 | 40.58419 | 24.13803 | 39159 ft | 454 kts | 180° |
| 2026-04-27 16:51 | 40.52120 | 24.14463 | 39157 ft | 454 kts | 180° |
| 2026-04-27 16:51 | 40.45827 | 24.15122 | 39161 ft | 454 kts | 180° |
| 2026-04-27 16:52 | 40.39531 | 24.15780 | 39151 ft | 454 kts | 180° |
| 2026-04-27 16:52 | 40.33239 | 24.16436 | 39160 ft | 454 kts | 180° |
| 2026-04-27 16:53 | 40.26942 | 24.17092 | 39159 ft | 454 kts | 180° |
| 2026-04-27 16:53 | 40.20688 | 24.17741 | 39155 ft | 453 kts | 180° |
| 2026-04-27 16:54 | 40.14393 | 24.18394 | 39154 ft | 454 kts | 180° |
| 2026-04-27 16:54 | 40.08102 | 24.19045 | 39154 ft | 454 kts | 180° |
| 2026-04-27 16:55 | 40.01800 | 24.19696 | 39154 ft | 454 kts | 180° |
| 2026-04-27 16:55 | 39.95505 | 24.20346 | 39144 ft | 453 kts | 180° |
| 2026-04-27 16:56 | 39.89222 | 24.20992 | 39151 ft | 453 kts | 180° |
| 2026-04-27 16:56 | 39.83002 | 24.21630 | 39151 ft | 453 kts | 180° |
| 2026-04-27 16:57 | 39.76721 | 24.22276 | 39144 ft | 452 kts | 180° |
| 2026-04-27 16:57 | 39.70424 | 24.22920 | 39148 ft | 452 kts | 180° |
| 2026-04-27 16:58 | 39.64181 | 24.23558 | 39149 ft | 452 kts | 180° |
| 2026-04-27 16:58 | 39.57903 | 24.24199 | 39133 ft | 452 kts | 180° |
| 2026-04-27 16:59 | 39.51629 | 24.24837 | 39145 ft | 452 kts | 180° |
| 2026-04-27 16:59 | 39.46415 | 24.25367 | 39143 ft | 452 kts | 180° |
| 2026-04-27 17:00 | 39.37006 | 24.26322 | 39141 ft | 452 kts | 180° |
| 2026-04-27 17:01 | 39.30735 | 24.26956 | 39137 ft | 452 kts | 180° |
| 2026-04-27 17:01 | 39.24467 | 24.27589 | 39138 ft | 452 kts | 180° |
| 2026-04-27 17:02 | 39.18192 | 24.28222 | 39138 ft | 452 kts | 180° |
| 2026-04-27 17:02 | 39.11956 | 24.28850 | 39131 ft | 451 kts | 180° |
| 2026-04-27 17:03 | 39.05697 | 24.29479 | 39138 ft | 451 kts | 180° |
| 2026-04-27 17:03 | 38.99433 | 24.30107 | 39135 ft | 451 kts | 180° |
| 2026-04-27 17:04 | 38.93170 | 24.30734 | 39123 ft | 451 kts | 180° |
| 2026-04-27 17:04 | 38.86903 | 24.31360 | 39142 ft | 452 kts | 180° |
| 2026-04-27 17:05 | 38.80637 | 24.31986 | 39135 ft | 451 kts | 180° |
| 2026-04-27 17:05 | 38.74366 | 24.32610 | 39135 ft | 451 kts | 180° |
| 2026-04-27 17:06 | 38.68097 | 24.33233 | 39125 ft | 452 kts | 180° |
| 2026-04-27 17:06 | 38.61830 | 24.33855 | 39129 ft | 452 kts | 180° |
| 2026-04-27 17:07 | 38.55562 | 24.34476 | 39132 ft | 452 kts | 180° |
| 2026-04-27 17:07 | 38.49324 | 24.35093 | 39120 ft | 452 kts | 180° |
| 2026-04-27 17:08 | 38.43052 | 24.35712 | 39132 ft | 452 kts | 180° |
| 2026-04-27 17:08 | 38.36776 | 24.36331 | 39130 ft | 452 kts | 180° |
| 2026-04-27 17:09 | 38.30496 | 24.36949 | 39130 ft | 452 kts | 180° |
| 2026-04-27 17:09 | 38.24217 | 24.37565 | 39125 ft | 452 kts | 180° |
| 2026-04-27 17:10 | 38.17936 | 24.38181 | 39127 ft | 453 kts | 180° |
| 2026-04-27 17:10 | 38.11653 | 24.38795 | 39131 ft | 453 kts | 180° |
| 2026-04-27 17:11 | 38.05366 | 24.39411 | 39113 ft | 453 kts | 180° |
| 2026-04-27 17:11 | 37.95931 | 24.40330 | 39121 ft | 453 kts | 180° |
| 2026-04-27 17:12 | 37.86549 | 24.41243 | 39116 ft | 453 kts | 180° |
| 2026-04-27 17:13 | 37.80250 | 24.41854 | 39108 ft | 453 kts | 180° |
| 2026-04-27 17:13 | 37.73956 | 24.42463 | 39104 ft | 454 kts | 180° |
| 2026-04-27 17:14 | 37.67670 | 24.43072 | 39104 ft | 453 kts | 180° |
| 2026-04-27 17:14 | 37.61358 | 24.43681 | 39092 ft | 454 kts | 180° |
| 2026-04-27 17:14 | 37.58224 | 24.43984 | 38930 ft | 447 kts | 180° |
| 2026-04-27 17:15 | 37.55173 | 24.44278 | 38375 ft | 444 kts | 180° |
| 2026-04-27 17:15 | 37.52098 | 24.44573 | 37742 ft | 443 kts | 180° |
| 2026-04-27 17:15 | 37.48999 | 24.44871 | 37199 ft | 439 kts | 179° |
| 2026-04-27 17:15 | 37.45969 | 24.45162 | 36731 ft | 435 kts | 179° |
| 2026-04-27 17:16 | 37.43002 | 24.45447 | 36257 ft | 431 kts | 179° |
| 2026-04-27 17:16 | 37.40010 | 24.45734 | 35740 ft | 429 kts | 180° |
| 2026-04-27 17:16 | 37.37048 | 24.46017 | 35240 ft | 427 kts | 179° |
| 2026-04-27 17:16 | 37.34097 | 24.46300 | 34751 ft | 425 kts | 179° |
| 2026-04-27 17:17 | 37.31154 | 24.46582 | 34264 ft | 423 kts | 179° |
| 2026-04-27 17:17 | 37.28225 | 24.46861 | 33726 ft | 421 kts | 179° |
| 2026-04-27 17:17 | 37.25336 | 24.47137 | 33201 ft | 419 kts | 179° |
| 2026-04-27 17:18 | 37.19535 | 24.47692 | 32261 ft | 413 kts | 179° |
| 2026-04-27 17:18 | 37.16677 | 24.47964 | 31795 ft | 410 kts | 179° |
| 2026-04-27 17:18 | 37.13884 | 24.48231 | 31328 ft | 403 kts | 179° |
| 2026-04-27 17:18 | 37.11108 | 24.48495 | 30877 ft | 396 kts | 179° |
| 2026-04-27 17:19 | 37.08374 | 24.48755 | 30467 ft | 393 kts | 178° |
| 2026-04-27 17:19 | 37.05648 | 24.49013 | 30022 ft | 391 kts | 178° |
| 2026-04-27 17:19 | 37.02938 | 24.49271 | 29519 ft | 390 kts | 178° |
| 2026-04-27 17:19 | 37.00240 | 24.49528 | 29087 ft | 387 kts | 178° |
| 2026-04-27 17:20 | 36.97570 | 24.49782 | 28669 ft | 384 kts | 178° |
| 2026-04-27 17:20 | 36.94919 | 24.50033 | 28256 ft | 380 kts | 179° |
| 2026-04-27 17:20 | 36.92289 | 24.50281 | 27857 ft | 378 kts | 179° |
| 2026-04-27 17:20 | 36.89669 | 24.50530 | 27453 ft | 375 kts | 179° |
| 2026-04-27 17:21 | 36.87074 | 24.50776 | 27057 ft | 373 kts | 179° |
| 2026-04-27 17:21 | 36.84498 | 24.51019 | 26664 ft | 371 kts | 179° |
| 2026-04-27 17:21 | 36.81932 | 24.51261 | 26274 ft | 368 kts | 179° |
| 2026-04-27 17:21 | 36.79379 | 24.51502 | 25887 ft | 367 kts | 179° |
| 2026-04-27 17:22 | 36.76837 | 24.51741 | 25411 ft | 367 kts | 179° |
| 2026-04-27 17:22 | 36.74293 | 24.51598 | 24690 ft | 365 kts | 192° |
| 2026-04-27 17:22 | 36.71780 | 24.51181 | 24016 ft | 364 kts | 188° |
| 2026-04-27 17:22 | 36.69260 | 24.50927 | 23334 ft | 362 kts | 188° |
| 2026-04-27 17:23 | 36.66791 | 24.50682 | 22578 ft | 359 kts | 187° |
| 2026-04-27 17:23 | 36.64303 | 24.50440 | 21846 ft | 357 kts | 187° |
| 2026-04-27 17:23 | 36.61842 | 24.50203 | 21248 ft | 351 kts | 187° |
| 2026-04-27 17:23 | 36.59476 | 24.49975 | 20870 ft | 339 kts | 187° |
| 2026-04-27 17:24 | 36.57135 | 24.49749 | 20525 ft | 327 kts | 187° |
| 2026-04-27 17:24 | 36.54903 | 24.49534 | 20202 ft | 316 kts | 187° |
| 2026-04-27 17:24 | 36.52746 | 24.49326 | 19881 ft | 308 kts | 187° |
| 2026-04-27 17:24 | 36.50594 | 24.49116 | 19540 ft | 313 kts | 187° |
| 2026-04-27 17:25 | 36.48412 | 24.48904 | 19218 ft | 317 kts | 187° |
| 2026-04-27 17:25 | 36.46202 | 24.48691 | 18892 ft | 318 kts | 187° |
| 2026-04-27 17:25 | 36.43993 | 24.48479 | 18561 ft | 317 kts | 187° |
| 2026-04-27 17:25 | 36.41795 | 24.48268 | 18207 ft | 316 kts | 187° |
| 2026-04-27 17:26 | 36.39607 | 24.48058 | 17837 ft | 314 kts | 187° |
| 2026-04-27 17:26 | 36.37435 | 24.47849 | 17498 ft | 312 kts | 187° |
| 2026-04-27 17:26 | 36.35279 | 24.47642 | 17167 ft | 309 kts | 187° |
| 2026-04-27 17:26 | 36.33136 | 24.47436 | 16840 ft | 307 kts | 187° |
| 2026-04-27 17:27 | 36.31015 | 24.47232 | 16520 ft | 305 kts | 186° |
| 2026-04-27 17:27 | 36.28935 | 24.47033 | 16202 ft | 303 kts | 186° |
| 2026-04-27 17:27 | 36.26843 | 24.46833 | 15879 ft | 300 kts | 186° |
| 2026-04-27 17:27 | 36.24766 | 24.46633 | 15562 ft | 299 kts | 186° |
| 2026-04-27 17:28 | 36.22697 | 24.46435 | 15246 ft | 297 kts | 186° |
| 2026-04-27 17:28 | 36.20644 | 24.46239 | 14930 ft | 295 kts | 186° |
| 2026-04-27 17:28 | 36.16563 | 24.45848 | 14305 ft | 293 kts | 186° |
| 2026-04-27 17:29 | 36.14532 | 24.45654 | 13991 ft | 291 kts | 186° |
| 2026-04-27 17:29 | 36.12513 | 24.45461 | 13654 ft | 290 kts | 186° |
| 2026-04-27 17:29 | 36.10503 | 24.45269 | 13317 ft | 289 kts | 186° |
| 2026-04-27 17:29 | 36.08508 | 24.45079 | 12996 ft | 287 kts | 186° |
| 2026-04-27 17:30 | 36.06521 | 24.44889 | 12673 ft | 285 kts | 186° |
| 2026-04-27 17:30 | 36.02591 | 24.44515 | 12080 ft | 281 kts | 186° |
| 2026-04-27 17:30 | 36.00646 | 24.44330 | 11780 ft | 279 kts | 186° |
| 2026-04-27 17:31 | 35.98715 | 24.44145 | 11482 ft | 278 kts | 186° |
| 2026-04-27 17:31 | 35.96816 | 24.43964 | 11186 ft | 276 kts | 186° |
| 2026-04-27 17:31 | 35.94902 | 24.43783 | 10888 ft | 275 kts | 186° |
| 2026-04-27 17:31 | 35.92999 | 24.43602 | 10589 ft | 274 kts | 186° |
| 2026-04-27 17:32 | 35.91099 | 24.43422 | 10293 ft | 273 kts | 186° |
| 2026-04-27 17:32 | 35.87322 | 24.43063 | 9671 ft | 271 kts | 186° |
| 2026-04-27 17:32 | 35.85445 | 24.42884 | 9316 ft | 271 kts | 185° |
| 2026-04-27 17:33 | 35.83559 | 24.42705 | 8997 ft | 271 kts | 185° |
| 2026-04-27 17:33 | 35.81681 | 24.42527 | 8686 ft | 270 kts | 185° |
| 2026-04-27 17:33 | 35.79814 | 24.42350 | 8389 ft | 268 kts | 185° |
| 2026-04-27 17:33 | 35.77960 | 24.42175 | 8097 ft | 267 kts | 185° |
| 2026-04-27 17:34 | 35.76113 | 24.42000 | 7802 ft | 265 kts | 185° |
| 2026-04-27 17:34 | 35.74276 | 24.41826 | 7514 ft | 264 kts | 185° |
| 2026-04-27 17:34 | 35.72451 | 24.41653 | 7227 ft | 263 kts | 185° |
| 2026-04-27 17:34 | 35.70630 | 24.41481 | 6945 ft | 262 kts | 184° |
| 2026-04-27 17:35 | 35.68814 | 24.41310 | 6663 ft | 261 kts | 184° |
| 2026-04-27 17:35 | 35.67001 | 24.41138 | 6364 ft | 260 kts | 184° |
| 2026-04-27 17:35 | 35.65199 | 24.40969 | 6054 ft | 260 kts | 184° |
| 2026-04-27 17:35 | 35.63417 | 24.40801 | 5765 ft | 259 kts | 184° |
| 2026-04-27 17:36 | 35.61618 | 24.40632 | 5478 ft | 258 kts | 184° |
| 2026-04-27 17:36 | 35.59841 | 24.40465 | 5286 ft | 253 kts | 185° |
| 2026-04-27 17:36 | 35.58091 | 24.40415 | 5029 ft | 251 kts | 181° |
| 2026-04-27 17:36 | 35.56340 | 24.40400 | 4685 ft | 253 kts | 181° |
| 2026-04-27 17:37 | 35.54587 | 24.40379 | 4438 ft | 250 kts | 181° |
| 2026-04-27 17:37 | 35.52872 | 24.40354 | 4288 ft | 243 kts | 181° |
| 2026-04-27 17:37 | 35.51212 | 24.40327 | 4167 ft | 234 kts | 181° |
| 2026-04-27 17:37 | 35.49628 | 24.40300 | 4071 ft | 226 kts | 181° |
| 2026-04-27 17:38 | 35.48090 | 24.39951 | 3997 ft | 222 kts | 208° |
| 2026-04-27 17:38 | 35.46962 | 24.38754 | 3967 ft | 218 kts | 240° |
| 2026-04-27 17:38 | 35.46506 | 24.37018 | 3965 ft | 216 kts | 272° |
| 2026-04-27 17:38 | 35.46746 | 24.35213 | 3990 ft | 215 kts | 289° |
| 2026-04-27 17:39 | 35.47205 | 24.33456 | 4005 ft | 216 kts | 291° |
| 2026-04-27 17:39 | 35.47689 | 24.31722 | 3884 ft | 214 kts | 292° |
| 2026-04-27 17:39 | 35.48169 | 24.30013 | 3566 ft | 208 kts | 291° |
| 2026-04-27 17:39 | 35.48624 | 24.28392 | 3316 ft | 193 kts | 292° |
| 2026-04-27 17:40 | 35.49040 | 24.26896 | 2940 ft | 179 kts | 292° |
| 2026-04-27 17:40 | 35.49433 | 24.25500 | 2567 ft | 167 kts | 292° |
| 2026-04-27 17:40 | 35.49794 | 24.24199 | 2237 ft | 154 kts | 293° |
| 2026-04-27 17:40 | 35.50206 | 24.23052 | 1988 ft | 142 kts | 300° |
| 2026-04-27 17:41 | 35.50669 | 24.21987 | 1765 ft | 141 kts | 302° |
| 2026-04-27 17:41 | 35.51133 | 24.20935 | 1466 ft | 140 kts | 302° |
| 2026-04-27 17:41 | 35.51589 | 24.19893 | 1152 ft | 139 kts | 295° |
| 2026-04-27 17:41 | 35.51930 | 24.18796 | 906 ft | 137 kts | 292° |
| 2026-04-27 17:42 | 35.52290 | 24.17707 | 696 ft | 137 kts | 293° |
| 2026-04-27 17:42 | 35.52638 | 24.16622 | 521 ft | 135 kts | 292° |
| 2026-04-27 17:42 | 35.52949 | 24.15658 | 493 ft | 100 kts | 291° |
| 2026-04-27 17:42 | 35.53098 | 24.15195 | 490 ft | 18 kts | 292° |
| 2026-04-27 17:43 | 35.53160 | 24.15122 | 491 ft | 14 kts | 5° |
| 2026-04-27 17:43 | 35.53226 | 24.15147 | 493 ft | 4 kts | 23° |
| 2026-04-27 17:43 | 35.53227 | 24.15148 | 493 ft | 0 kts | 23° |
| 2026-04-27 17:43 | 35.53257 | 24.15162 | 493 ft | 9 kts | 13° |
| 2026-04-27 17:44 | 35.53309 | 24.15115 | 499 ft | 11 kts | 300° |
| 2026-04-27 17:44 | 35.53331 | 24.15052 | 499 ft | 13 kts | 290° |
| 2026-04-27 17:44 | 35.53367 | 24.14933 | 499 ft | 16 kts | 291° |
| 2026-04-27 17:44 | 35.53413 | 24.14796 | 499 ft | 17 kts | 291° |
| 2026-04-27 17:45 | 35.53460 | 24.14651 | 499 ft | 20 kts | 291° |
| 2026-04-27 17:45 | 35.53510 | 24.14501 | 500 ft | 18 kts | 292° |
| 2026-04-27 17:45 | 35.53550 | 24.14379 | 500 ft | 10 kts | 291° |
| 2026-04-27 17:45 | 35.53602 | 24.14346 | 500 ft | 11 kts | 14° |
| 2026-04-27 17:46 | 35.53674 | 24.14356 | 500 ft | 10 kts | 325° |
| 2026-04-27 17:46 | 35.53710 | 24.14268 | 500 ft | 13 kts | 290° |
| 2026-04-27 17:46 | 35.53748 | 24.14154 | 500 ft | 14 kts | 291° |
| 2026-04-27 17:46 | 35.53785 | 24.14078 | 500 ft | 7 kts | 345° |
| 2026-04-27 17:47 | 35.53827 | 24.14093 | 500 ft | 6 kts | 22° |
| 2026-04-27 17:47 | 35.53847 | 24.14103 | 500 ft | 3 kts | 21° |
| 2026-04-27 17:47 | 35.53851 | 24.14105 | 500 ft | 0 kts | 21° |